Time;durP1;ratioP1;P1;durP2;ratioP2;P2;SDS_P1;SDS_P2;PMS_P1;PMS_P2;Temp;Humidity;BMP_temperature;BMP_pressure;BME280_temperature;BME280_humidity;BME280_pressure;Samples;Min_cycle;Max_cycle;Signal;HPM_P1;HPM_P2
2021/09/26 00:00:38;;;;;;;50.60;27.40;;;;;;;14.39;100.00;101533.63;5029699;28;20036;-78
2021/09/26 00:03:04;;;;;;;44.70;25.27;;;;;;;14.38;100.00;101524.81;5025719;28;20364;-78
2021/09/26 00:05:49;;;;;;;49.22;26.50;;;;;;;14.38;100.00;101523.91;5023459;28;20033;-77
2021/09/26 00:08:34;;;;;;;51.67;26.27;;;;;;;14.40;100.00;101523.06;5030901;28;20041;-78
2021/09/26 00:11:05;;;;;;;50.22;26.40;;;;;;;14.40;100.00;101515.13;5028252;28;20239;-78
2021/09/26 00:13:51;;;;;;;50.33;26.00;;;;;;;14.42;100.00;101516.03;5030976;28;20033;-77
2021/09/26 00:16:17;;;;;;;52.08;26.13;;;;;;;14.45;100.00;101521.38;5027946;28;20029;-77
2021/09/26 00:18:43;;;;;;;50.42;25.70;;;;;;;14.43;100.00;101520.47;5029451;28;20044;-78
2021/09/26 00:21:08;;;;;;;45.10;24.77;;;;;;;14.46;100.00;101522.22;5028699;28;20087;-78
2021/09/26 00:23:56;;;;;;;44.53;24.80;;;;;;;14.46;100.00;101531.09;5030921;28;20045;-78
2021/09/26 00:26:41;;;;;;;46.50;25.60;;;;;;;14.47;100.00;101524.03;5031928;28;20036;-77
2021/09/26 00:29:07;;;;;;;49.45;25.02;;;;;;;14.47;100.00;101518.72;5025475;28;20545;-78
2021/09/26 00:31:32;;;;;;;47.33;25.30;;;;;;;14.48;100.00;101521.38;5031743;28;20029;-76
2021/09/26 00:33:57;;;;;;;51.08;25.95;;;;;;;14.53;100.00;101517.91;5031526;28;20029;-77
2021/09/26 00:36:23;;;;;;;39.90;23.65;;;;;;;14.59;100.00;101515.34;5030951;28;20087;-78
2021/09/26 00:38:48;;;;;;;50.17;25.58;;;;;;;14.61;100.00;101513.56;5030195;28;20460;-76
2021/09/26 00:41:13;;;;;;;44.00;24.02;;;;;;;14.61;100.00;101519.78;5030495;28;20041;-77
2021/09/26 00:43:39;;;;;;;38.97;24.00;;;;;;;14.64;100.00;101511.00;5030220;28;20139;-76
2021/09/26 00:46:06;;;;;;;46.30;24.98;;;;;;;14.63;99.92;101509.22;5031815;28;20068;-78
2021/09/26 00:48:33;;;;;;;42.42;23.52;;;;;;;14.60;99.89;101514.47;5026141;28;20445;-77
2021/09/26 00:50:58;;;;;;;41.20;25.02;;;;;;;14.57;99.98;101509.13;5026946;28;20033;-77
2021/09/26 00:53:25;;;;;;;44.72;25.38;;;;;;;14.56;99.73;101517.97;5028946;28;20104;-78
2021/09/26 00:55:55;;;;;;;43.00;24.52;;;;;;;14.54;99.92;101520.59;5028635;28;20476;-78
2021/09/26 00:58:21;;;;;;;44.35;25.52;;;;;;;14.48;99.97;101518.75;5030343;28;20042;-79
2021/09/26 01:00:47;;;;;;;54.45;26.55;;;;;;;14.43;100.00;101517.81;5025885;28;20034;-77
2021/09/26 01:03:13;;;;;;;51.58;25.02;;;;;;;14.37;100.00;101520.38;5026609;28;20530;-78
2021/09/26 01:05:39;;;;;;;51.35;24.17;;;;;;;14.32;100.00;101524.72;5030967;28;20042;-78
2021/09/26 01:08:19;;;;;;;42.70;25.13;;;;;;;14.28;100.00;101523.81;5035422;28;20490;-76
2021/09/26 01:11:01;;;;;;;46.40;23.98;;;;;;;14.24;100.00;101523.75;5025969;28;20036;-77
2021/09/26 01:13:48;;;;;;;43.10;23.25;;;;;;;14.16;100.00;101513.97;5034898;28;20029;-75
2021/09/26 01:16:25;;;;;;;49.15;24.20;;;;;;;14.09;100.00;101512.09;5033581;28;20049;-77
2021/09/26 01:19:13;;;;;;;47.63;22.65;;;;;;;14.05;100.00;101504.97;5030950;28;20032;-77
2021/09/26 01:22:00;;;;;;;44.78;23.75;;;;;;;14.03;100.00;101495.28;5026565;28;20073;-78
2021/09/26 01:24:41;;;;;;;45.35;24.30;;;;;;;14.04;100.00;101491.72;5029516;28;20029;-77
2021/09/26 01:27:28;;;;;;;44.63;24.50;;;;;;;14.03;100.00;101490.84;5033110;28;20036;-77
2021/09/26 01:30:23;;;;;;;42.95;22.25;;;;;;;14.03;100.00;101489.97;5034266;28;20025;-77
2021/09/26 01:33:28;;;;;;;46.58;22.42;;;;;;;14.02;100.00;101494.38;5031649;28;20031;-75
2021/09/26 01:35:55;;;;;;;47.28;24.13;;;;;;;14.00;100.00;101490.84;5031973;28;20026;-77
2021/09/26 01:38:30;;;;;;;44.65;23.25;;;;;;;13.96;100.00;101489.88;5032984;28;20061;-77
2021/09/26 01:41:17;;;;;;;45.63;24.80;;;;;;;13.92;100.00;101481.91;5025514;28;20029;-77
2021/09/26 01:44:04;;;;;;;47.63;23.70;;;;;;;13.88;100.00;101482.72;5034399;28;20154;-76
2021/09/26 01:46:34;;;;;;;47.15;22.35;;;;;;;13.88;100.00;101474.81;5033411;28;20067;-75
2021/09/26 01:49:10;;;;;;;48.70;24.60;;;;;;;13.89;100.00;101476.56;5032094;28;20078;-77
2021/09/26 01:51:38;;;;;;;44.42;24.05;;;;;;;13.88;100.00;101474.81;5032860;28;20110;-76
2021/09/26 01:54:20;;;;;;;46.35;24.50;;;;;;;13.87;100.00;101479.19;5032569;28;20380;-77
2021/09/26 01:56:47;;;;;;;52.40;25.05;;;;;;;13.84;100.00;101471.22;5032881;28;20052;-77
2021/09/26 01:59:14;;;;;;;51.67;25.15;;;;;;;13.82;100.00;101476.50;5032476;28;20040;-79
2021/09/26 02:01:41;;;;;;;46.20;24.00;;;;;;;13.80;100.00;101470.28;5033317;28;20168;-76
2021/09/26 02:04:15;;;;;;;47.42;24.00;;;;;;;13.79;100.00;101476.44;5029798;28;20041;-77
2021/09/26 02:06:43;;;;;;;42.45;24.02;;;;;;;13.75;100.00;101479.91;5030247;28;20034;-76
2021/09/26 02:09:11;;;;;;;44.35;24.50;;;;;;;13.74;100.00;101479.88;5029865;28;20120;-78
2021/09/26 02:11:38;;;;;;;48.95;24.90;;;;;;;13.71;100.00;101480.72;5033068;28;20112;-78
2021/09/26 02:14:05;;;;;;;41.78;23.33;;;;;;;13.67;100.00;101476.25;5030842;28;20120;-77
2021/09/26 02:16:50;;;;;;;44.95;23.75;;;;;;;13.65;100.00;101472.72;5028084;28;20037;-76
2021/09/26 02:19:36;;;;;;;44.03;24.48;;;;;;;13.63;100.00;101477.09;5031663;28;20029;-78
2021/09/26 02:22:04;;;;;;;53.17;24.92;;;;;;;13.62;100.00;101477.97;5032706;28;20541;-77
2021/09/26 02:24:31;;;;;;;51.17;24.80;;;;;;;13.62;100.00;101477.97;5015969;28;20040;-78
2021/09/26 02:27:00;;;;;;;42.55;24.67;;;;;;;13.62;100.00;101477.97;5030291;28;20072;-78
2021/09/26 02:29:26;;;;;;;49.13;25.52;;;;;;;13.64;100.00;101484.16;5028263;28;20095;-75
2021/09/26 02:31:52;;;;;;;52.00;24.77;;;;;;;13.66;100.00;101491.25;5034856;28;20464;-77
2021/09/26 02:34:17;;;;;;;59.33;28.63;;;;;;;13.70;100.00;101488.63;5034033;28;20309;-78
2021/09/26 02:36:42;;;;;;;57.33;27.02;;;;;;;13.74;100.00;101487.81;5033138;28;20076;-78
2021/09/26 02:39:08;;;;;;;46.95;25.10;;;;;;;13.80;100.00;101472.91;5032743;28;20491;-79
2021/09/26 02:41:57;;;;;;;56.35;28.90;;;;;;;13.91;100.00;101477.47;5033379;28;20045;-77
2021/09/26 02:44:57;;;;;;;49.25;27.65;;;;;;;13.99;100.00;101478.47;5033078;28;20092;-79
2021/09/26 02:47:25;;;;;;;53.58;26.77;;;;;;;14.06;100.00;101480.31;5033433;28;20498;-78
2021/09/26 02:50:11;;;;;;;51.92;28.75;;;;;;;14.11;100.00;101473.31;5032683;28;20038;-77
2021/09/26 02:52:37;;;;;;;52.55;27.27;;;;;;;14.16;100.00;101471.63;5027781;28;20033;-77
2021/09/26 02:55:23;;;;;;;43.08;25.60;;;;;;;14.23;100.00;101477.88;5031688;28;20037;-78
2021/09/26 02:58:08;;;;;;;44.58;25.27;;;;;;;14.30;100.00;101473.53;5033500;28;20563;-77
2021/09/26 03:00:54;;;;;;;40.15;24.50;;;;;;;14.35;100.00;101482.41;5033314;28;20124;-77
2021/09/26 03:03:23;;;;;;;38.58;24.50;;;;;;;14.39;100.00;101478.03;5027536;28;20049;-77
2021/09/26 03:05:50;;;;;;;43.15;24.63;;;;;;;14.40;100.00;101472.75;5030118;28;20361;-78
2021/09/26 03:08:15;;;;;;;44.00;24.15;;;;;;;14.45;100.00;101456.94;5028104;28;20376;-77
2021/09/26 03:10:43;;;;;;;44.78;23.92;;;;;;;14.46;100.00;101454.28;5031672;28;20096;-78
2021/09/26 03:13:09;;;;;;;39.05;24.13;;;;;;;14.47;100.00;101453.44;5030575;28;20045;-75
2021/09/26 03:15:34;;;;;;;40.55;24.05;;;;;;;14.48;100.00;101457.84;5030686;28;20029;-75
2021/09/26 03:18:00;;;;;;;38.45;24.45;;;;;;;14.49;100.00;101454.31;5029713;28;20029;-76
2021/09/26 03:20:25;;;;;;;40.72;24.15;;;;;;;14.50;100.00;101456.09;5031655;28;20041;-77
2021/09/26 03:22:51;;;;;;;39.03;22.92;;;;;;;14.50;100.00;101456.09;5030925;28;20033;-78
2021/09/26 03:25:36;;;;;;;41.05;24.17;;;;;;;14.51;100.00;101456.97;5030344;28;20063;-77
2021/09/26 03:28:21;;;;;;;41.63;22.95;;;;;;;14.54;100.00;101451.75;5030864;28;20033;-77
2021/09/26 03:30:47;;;;;;;40.33;23.02;;;;;;;14.55;100.00;101444.66;5026735;28;20086;-76
2021/09/26 03:33:12;;;;;;;43.13;23.00;;;;;;;14.57;100.00;101450.84;5032352;28;20036;-79
2021/09/26 03:35:38;;;;;;;40.45;24.58;;;;;;;14.58;100.00;101453.53;5029497;28;20392;-78
2021/09/26 03:38:06;;;;;;;37.92;23.65;;;;;;;14.59;100.00;101449.13;5031347;28;20456;-76
2021/09/26 03:40:32;;;;;;;38.78;23.80;;;;;;;14.61;100.00;101440.31;5030191;28;20128;-76
2021/09/26 03:42:59;;;;;;;38.47;24.15;;;;;;;14.62;100.00;101441.19;5031903;28;20033;-78
2021/09/26 03:45:24;;;;;;;43.70;23.67;;;;;;;14.63;100.00;101435.06;5031620;28;20072;-78
2021/09/26 03:47:50;;;;;;;44.25;23.65;;;;;;;14.63;100.00;101429.75;5024936;28;20045;-78
2021/09/26 03:50:15;;;;;;;35.15;22.92;;;;;;;14.64;100.00;101434.19;5032263;28;20029;-77
2021/09/26 03:52:41;;;;;;;36.22;22.33;;;;;;;14.65;100.00;101428.03;5032006;28;20025;-77
2021/09/26 03:55:13;;;;;;;36.70;23.60;;;;;;;14.66;100.00;101432.44;5026167;28;20033;-77
2021/09/26 03:57:58;;;;;;;35.67;23.08;;;;;;;14.68;100.00;101430.69;5031991;28;20061;-77
2021/09/26 04:00:23;;;;;;;35.22;22.15;;;;;;;14.70;100.00;101426.28;5031738;28;20471;-78
2021/09/26 04:02:51;;;;;;;34.20;21.70;;;;;;;14.73;100.00;101441.31;5026949;28;20033;-77
2021/09/26 04:05:16;;;;;;;32.42;21.90;;;;;;;14.75;100.00;101429.88;5031130;28;20483;-76
2021/09/26 04:08:01;;;;;;;36.53;22.42;;;;;;;14.73;100.00;101431.63;5029859;28;20072;-77
2021/09/26 04:10:27;;;;;;;36.08;21.73;;;;;;;14.71;100.00;101428.06;5032251;28;20371;-77
2021/09/26 04:12:52;;;;;;;37.08;23.70;;;;;;;14.70;100.00;101436.88;5032214;28;20112;-77
2021/09/26 04:15:19;;;;;;;42.30;23.67;;;;;;;14.71;100.00;101429.84;5031419;28;20030;-78
2021/09/26 04:17:45;;;;;;;37.13;21.83;;;;;;;14.73;100.00;101431.63;5030527;28;20121;-78
2021/09/26 04:20:10;;;;;;;39.65;23.00;;;;;;;14.72;100.00;101440.44;5030174;28;20140;-77
2021/09/26 04:22:56;;;;;;;38.58;23.55;;;;;;;14.73;100.00;101426.34;5031960;28;20428;-78
2021/09/26 04:25:21;;;;;;;38.30;21.83;;;;;;;14.74;100.00;101432.50;5029824;28;20072;-76
2021/09/26 04:27:47;;;;;;;35.75;22.70;;;;;;;14.74;100.00;101438.69;5031704;28;20053;-78
2021/09/26 04:30:12;;;;;;;37.47;23.25;;;;;;;14.77;100.00;101427.22;5031376;28;20041;-77
2021/09/26 04:32:38;;;;;;;35.25;22.13;;;;;;;14.76;100.00;101430.75;5030544;28;20025;-78
2021/09/26 04:35:25;;;;;;;36.22;23.52;;;;;;;14.76;100.00;101422.81;5032053;28;20044;-77
2021/09/26 04:37:52;;;;;;;45.90;24.38;;;;;;;14.76;100.00;101431.66;5031776;28;20041;-78
2021/09/26 04:40:18;;;;;;;37.72;23.30;;;;;;;14.79;100.00;101431.66;5031175;28;20036;-76
2021/09/26 04:42:43;;;;;;;44.00;23.88;;;;;;;14.81;100.00;101429.94;5028527;28;20029;-78
2021/09/26 04:45:10;;;;;;;41.33;23.52;;;;;;;14.80;100.00;101436.09;5030219;28;20028;-76
2021/09/26 04:47:36;;;;;;;32.58;21.98;;;;;;;14.83;100.00;101441.41;5027929;28;20037;-78
2021/09/26 04:50:03;;;;;;;42.03;24.20;;;;;;;14.83;100.00;101438.78;5030871;28;20167;-77
2021/09/26 04:52:29;;;;;;;35.45;23.67;;;;;;;14.84;100.00;101437.91;5028565;28;20026;-77
2021/09/26 04:54:54;;;;;;;36.85;22.33;;;;;;;14.85;100.00;101433.47;5026332;28;20040;-78
2021/09/26 04:57:19;;;;;;;38.80;24.33;;;;;;;14.86;100.00;101429.09;5030306;28;20037;-78
2021/09/26 04:59:45;;;;;;;38.33;25.00;;;;;;;14.87;100.00;101433.50;5030463;28;20392;-78
2021/09/26 05:02:10;;;;;;;44.00;25.00;;;;;;;14.86;100.00;101431.75;5030647;28;20035;-78
2021/09/26 05:04:36;;;;;;;37.40;23.92;;;;;;;14.87;100.00;101426.44;5024735;28;20029;-77
2021/09/26 05:07:02;;;;;;;41.55;25.10;;;;;;;14.88;100.00;101424.66;5028095;28;20102;-78
2021/09/26 05:09:27;;;;;;;42.47;24.42;;;;;;;14.89;100.00;101429.09;5031681;28;20025;-77
2021/09/26 05:11:53;;;;;;;40.33;23.50;;;;;;;14.90;100.00;101426.47;5027484;28;20032;-77
2021/09/26 05:14:18;;;;;;;41.28;25.25;;;;;;;14.96;100.00;101436.22;5029481;28;20053;-79
2021/09/26 05:16:44;;;;;;;41.20;25.75;;;;;;;14.94;100.00;101430.91;5026412;28;20076;-77
2021/09/26 05:19:29;;;;;;;44.85;26.52;;;;;;;14.94;100.00;101435.34;5030312;28;20086;-77
2021/09/26 05:21:54;;;;;;;45.65;26.48;;;;;;;14.91;100.00;101428.25;5030204;28;20088;-80
2021/09/26 05:24:20;;;;;;;47.20;27.05;;;;;;;14.92;100.00;101430.03;5026289;28;20548;-77
2021/09/26 05:26:45;;;;;;;51.85;28.75;;;;;;;14.90;100.00;101428.25;5029329;28;20029;-83
2021/09/26 05:29:30;;;;;;;55.50;28.88;;;;;;;14.89;100.00;101421.16;5028603;28;20029;-81
2021/09/26 05:31:56;;;;;;;58.38;30.45;;;;;;;14.88;100.00;101435.28;5031798;28;20064;-81
2021/09/26 05:34:22;;;;;;;55.15;31.45;;;;;;;14.86;100.00;101431.75;5028414;28;20025;-79
2021/09/26 05:36:53;;;;;;;54.75;30.95;;;;;;;14.87;100.00;101437.03;5028299;28;20034;-79
2021/09/26 05:39:20;;;;;;;50.72;30.17;;;;;;;14.87;100.00;101438.78;5030607;28;20033;-81
2021/09/26 05:42:11;;;;;;;51.70;30.73;;;;;;;14.86;100.00;101439.69;5032118;28;20084;-80
2021/09/26 05:44:49;;;;;;;54.22;30.90;;;;;;;14.87;100.00;101441.44;5031562;28;20026;-79
2021/09/26 05:47:17;;;;;;;60.35;34.22;;;;;;;14.84;100.00;101429.97;5028303;28;20026;-80
2021/09/26 05:49:51;;;;;;;61.92;34.35;;;;;;;14.83;100.00;101436.13;5029664;28;20030;-82
2021/09/26 05:52:19;;;;;;;60.42;34.70;;;;;;;14.86;100.00;101431.75;5032290;28;20025;-79
2021/09/26 05:54:44;;;;;;;69.45;36.25;;;;;;;14.88;100.00;101438.84;5034683;28;20061;-81
2021/09/26 05:57:12;;;;;;;66.60;35.97;;;;;;;14.91;100.00;101435.31;5035043;28;20071;-82
2021/09/26 05:59:38;;;;;;;68.35;36.95;;;;;;;14.95;100.00;101442.41;5033260;28;20047;-79
2021/09/26 06:02:28;;;;;;;65.55;36.25;;;;;;;14.96;100.00;101441.53;5032249;28;20037;-81
2021/09/26 06:04:54;;;;;;;70.72;36.17;;;;;;;14.98;100.00;101442.44;5020062;28;20030;-80
2021/09/26 06:07:19;;;;;;;62.42;34.28;;;;;;;15.02;100.00;101441.59;5034001;28;20041;-80
2021/09/26 06:09:47;;;;;;;66.68;34.65;;;;;;;15.03;100.00;101435.41;5032831;28;20033;-80
2021/09/26 06:12:33;;;;;;;57.85;34.28;;;;;;;15.05;100.00;101433.66;5033851;28;20052;-80
2021/09/26 06:14:58;;;;;;;64.90;35.70;;;;;;;15.07;100.00;101437.22;5031823;28;20099;-79
2021/09/26 06:17:24;;;;;;;62.72;35.67;;;;;;;15.10;100.00;101437.22;5033096;28;20053;-79
2021/09/26 06:19:52;;;;;;;63.35;36.05;;;;;;;15.13;100.00;101431.94;5033251;28;20052;-79
2021/09/26 06:22:57;;;;;;;66.28;36.92;;;;;;;15.21;100.00;101436.44;5034095;28;20071;-80
2021/09/26 06:25:23;;;;;;;67.78;36.00;;;;;;;15.24;100.00;101439.97;5030679;28;20025;-79
2021/09/26 06:27:48;;;;;;;60.88;35.53;;;;;;;15.28;100.00;101438.22;5028697;28;20032;-79
2021/09/26 06:30:14;;;;;;;58.28;35.45;;;;;;;15.31;100.00;101443.56;5033438;28;20029;-80
2021/09/26 06:32:39;;;;;;;65.88;35.78;;;;;;;15.33;100.00;101440.03;5029292;28;20022;-80
2021/09/26 06:35:25;;;;;;;61.78;36.28;;;;;;;15.37;100.00;101440.94;5028625;28;20452;-80
2021/09/26 06:37:50;;;;;;;67.80;35.60;;;;;;;15.40;100.00;101440.97;5032317;28;20026;-79
2021/09/26 06:40:16;;;;;;;61.38;35.47;;;;;;;15.45;100.00;101435.66;5033894;28;20040;-81
2021/09/26 06:42:42;;;;;;;57.45;33.47;;;;;;;15.49;100.00;101443.69;5031838;28;20115;-80
2021/09/26 06:45:09;;;;;;;62.00;34.20;;;;;;;15.57;100.00;101446.38;5027671;28;20416;-80
2021/09/26 06:47:54;;;;;;;64.15;36.08;;;;;;;15.66;100.00;101438.44;5032806;28;20029;-79
2021/09/26 06:50:20;;;;;;;61.38;34.85;;;;;;;15.75;100.00;101447.31;5028959;28;20033;-81
2021/09/26 06:53:05;;;;;;;60.67;35.38;;;;;;;15.83;100.00;101456.28;5029940;28;20036;-80
2021/09/26 06:55:30;;;;;;;60.90;34.17;;;;;;;15.90;100.00;101451.84;5031172;28;20056;-78
2021/09/26 06:57:56;;;;;;;51.20;32.25;;;;;;;15.98;100.00;101460.75;5031813;28;20456;-79
2021/09/26 07:00:22;;;;;;;43.97;29.52;;;;;;;16.08;100.00;101457.25;5033474;28;20032;-81
2021/09/26 07:02:47;;;;;;;49.55;30.85;;;;;;;16.13;100.00;101462.59;5027499;28;20388;-80
2021/09/26 07:05:13;;;;;;;45.85;29.27;;;;;;;16.19;100.00;101476.75;5030157;28;20068;-79
2021/09/26 07:08:36;;;;;;;49.45;29.75;;;;;;;16.19;100.00;101471.44;5031953;28;20484;-81
2021/09/26 07:12:06;;;;;;;44.50;29.17;;;;;;;16.30;100.00;101459.97;5029263;28;20155;-82
2021/09/26 07:15:13;;;;;;;;;;;;;;;;;;;;;
2021/09/26 07:18:14;;;;;;;41.28;28.20;;;;;;;16.60;100.00;101469.75;5031016;28;20137;-79
2021/09/26 07:20:54;;;;;;;38.15;26.70;;;;;;;16.80;100.00;101464.47;5027801;28;20462;-80
2021/09/26 07:23:25;;;;;;;38.65;24.73;;;;;;;17.00;100.00;101466.31;5031710;28;20041;-83
2021/09/26 07:25:53;;;;;;;38.42;23.15;;;;;;;17.13;99.33;101460.09;5029650;28;20527;-82
2021/09/26 07:28:27;;;;;;;31.52;22.65;;;;;;;17.24;97.19;101464.50;5015880;28;20065;-81
2021/09/26 07:31:52;;;;;;;31.92;23.73;;;;;;;17.33;98.51;101470.69;5032545;28;20494;-82
2021/09/26 07:35:17;;;;;;;31.40;23.02;;;;;;;17.36;97.81;101462.72;5010906;28;20037;-83
2021/09/26 07:42:07;;;;;;;37.88;24.30;;;;;;;17.34;97.29;101461.81;5033168;28;20037;-83
2021/09/26 07:45:03;;;;;;;38.88;24.92;;;;;;;17.35;97.42;101457.41;5020742;28;20124;-83
2021/09/26 07:47:35;;;;;;;38.20;25.23;;;;;;;17.34;98.44;101460.97;5030096;28;20065;-84
2021/09/26 07:50:25;;;;;;;32.83;24.05;;;;;;;17.34;98.21;101464.50;5018811;28;20057;-79
2021/09/26 07:53:00;;;;;;;31.85;22.73;;;;;;;17.38;97.51;101465.38;5028590;28;20035;-78
2021/09/26 07:55:26;;;;;;;28.23;21.10;;;;;;;17.41;96.88;101473.34;5030285;28;20060;-77
2021/09/26 07:57:54;;;;;;;32.88;23.75;;;;;;;17.55;96.96;101480.41;5031553;28;20037;-81
2021/09/26 08:01:15;;;;;;;34.28;24.25;;;;;;;17.76;97.16;101496.34;5027764;28;20407;-83
2021/09/26 08:04:12;;;;;;;29.02;21.30;;;;;;;18.15;96.13;101507.78;5031839;28;20071;-84
2021/09/26 08:06:37;;;;;;;28.00;19.60;;;;;;;18.39;93.81;101505.00;5023633;28;20108;-80
2021/09/26 08:09:23;;;;;;;26.80;19.77;;;;;;;18.57;91.50;101504.91;5028295;28;20041;-80
2021/09/26 08:11:48;;;;;;;27.98;19.45;;;;;;;18.63;89.72;101506.66;5028907;28;20049;-80
2021/09/26 08:14:14;;;;;;;27.10;20.77;;;;;;;18.67;91.16;101509.28;5028870;28;20060;-80
2021/09/26 08:16:39;;;;;;;25.17;18.58;;;;;;;18.83;88.41;101502.06;5029895;28;20048;-78
2021/09/26 08:19:05;;;;;;;21.73;17.60;;;;;;;18.99;88.71;101512.63;5028635;28;20107;-79
2021/09/26 08:21:30;;;;;;;22.40;17.50;;;;;;;19.16;87.57;101508.06;5027109;28;20568;-79
2021/09/26 08:24:22;;;;;;;22.98;17.35;;;;;;;19.34;85.19;101493.69;5027584;28;20442;-81
2021/09/26 08:26:49;;;;;;;25.33;16.05;;;;;;;19.53;84.05;101489.03;5027508;28;20479;-81
2021/09/26 08:29:14;;;;;;;24.45;17.52;;;;;;;19.65;85.92;101497.81;5059201;28;20123;-83
2021/09/26 08:31:40;;;;;;;23.73;15.77;;;;;;;19.76;83.49;101493.22;5030979;28;20053;-76
2021/09/26 08:34:08;;;;;;;24.25;17.02;;;;;;;19.86;83.74;101494.06;5029944;28;20061;-81
2021/09/26 08:36:40;;;;;;;20.65;17.17;;;;;;;19.88;83.70;101495.78;5031906;28;20069;-81
2021/09/26 08:39:06;;;;;;;20.90;15.82;;;;;;;19.95;81.11;101483.25;5025144;28;20025;-78
2021/09/26 08:41:53;;;;;;;22.90;17.05;;;;;;;20.00;80.20;101483.19;5027305;28;20030;-79
2021/09/26 08:44:22;;;;;;;23.95;16.98;;;;;;;20.06;81.17;101496.47;5027460;28;20029;-78
2021/09/26 08:46:50;;;;;;;24.42;17.23;;;;;;;20.21;80.93;101501.63;5027848;28;20037;-79
2021/09/26 08:49:16;;;;;;;20.95;16.50;;;;;;;20.47;81.03;101496.81;5019753;28;20029;-81
2021/09/26 08:51:44;;;;;;;22.27;17.30;;;;;;;20.67;81.51;101504.56;5027961;28;20037;-80
2021/09/26 08:54:10;;;;;;;22.85;16.92;;;;;;;20.74;76.56;101489.34;5029396;28;20476;-80
2021/09/26 08:56:58;;;;;;;24.83;17.15;;;;;;;20.71;77.44;101501.88;5024199;28;20042;-80
2021/09/26 08:59:43;;;;;;;22.27;16.10;;;;;;;20.69;77.89;101497.44;5029718;28;20472;-79
2021/09/26 09:02:15;;;;;;;19.48;15.50;;;;;;;20.65;75.43;101491.22;5026632;28;20060;-80
2021/09/26 09:05:00;;;;;;;22.38;16.52;;;;;;;20.57;76.72;101494.91;5025215;28;20018;-80
2021/09/26 09:07:26;;;;;;;21.98;16.17;;;;;;;20.51;75.35;101499.44;5028651;28;20045;-79
2021/09/26 09:10:13;;;;;;;27.10;17.50;;;;;;;20.43;77.94;101503.13;5029043;28;20048;-80
2021/09/26 09:12:38;;;;;;;24.33;17.98;;;;;;;20.36;77.52;101508.56;5023202;28;20458;-80
2021/09/26 09:15:06;;;;;;;22.17;16.75;;;;;;;20.35;77.28;101508.59;5027969;28;20053;-78
2021/09/26 09:17:35;;;;;;;24.02;17.65;;;;;;;20.33;78.18;101513.97;5030114;28;20561;-80
2021/09/26 09:20:12;;;;;;;27.58;16.98;;;;;;;20.29;78.34;101516.69;5030168;28;20076;-79
2021/09/26 09:22:42;;;;;;;22.58;17.23;;;;;;;20.29;77.92;101509.53;5030153;28;20128;-79
2021/09/26 09:25:09;;;;;;;25.90;18.45;;;;;;;20.30;80.63;101521.13;5027838;28;20104;-80
2021/09/26 09:27:55;;;;;;;21.52;16.05;;;;;;;20.39;78.17;101521.00;5027356;28;20028;-79
2021/09/26 09:31:06;;;;;;;22.48;17.02;;;;;;;20.47;80.11;101529.81;5034462;28;20052;-79
2021/09/26 09:33:38;;;;;;;23.27;17.00;;;;;;;20.49;81.64;101536.00;5033807;28;20059;-79
2021/09/26 09:36:24;;;;;;;21.42;15.70;;;;;;;20.58;77.86;101526.06;5030881;28;20022;-80
2021/09/26 09:38:53;;;;;;;20.67;15.23;;;;;;;20.71;76.71;101514.34;5031386;28;20571;-79
2021/09/26 09:41:43;;;;;;;19.05;14.68;;;;;;;20.91;74.62;101510.50;5030381;28;20029;-81
2021/09/26 09:44:35;;;;;;;19.58;14.02;;;;;;;20.85;74.89;101519.50;5033511;28;20025;-78
2021/09/26 09:47:00;;;;;;;20.58;14.27;;;;;;;20.94;75.35;101523.81;5027111;28;20430;-79
2021/09/26 09:49:26;;;;;;;19.27;14.85;;;;;;;21.02;75.68;101529.91;5031052;28;20037;-79
2021/09/26 09:51:54;;;;;;;22.92;15.70;;;;;;;21.19;75.60;101530.53;5030138;28;20017;-80
2021/09/26 09:54:39;;;;;;;18.35;13.48;;;;;;;21.51;73.11;101520.16;5033473;28;20033;-79
2021/09/26 09:57:32;;;;;;;19.90;14.60;;;;;;;21.82;72.25;101528.53;5030486;28;20036;-79
2021/09/26 10:00:12;;;;;;;17.27;14.43;;;;;;;21.95;70.94;101522.94;5030087;28;20033;-78
2021/09/26 10:02:41;;;;;;;19.17;13.20;;;;;;;22.30;67.92;101515.94;5044700;28;20499;-81
2021/09/26 10:05:27;;;;;;;18.52;14.57;;;;;;;22.31;69.68;101523.09;5030533;28;20385;-79
2021/09/26 10:07:52;;;;;;;18.55;14.55;;;;;;;22.37;68.25;101512.28;5031580;28;20037;-80
2021/09/26 10:10:18;;;;;;;19.15;13.75;;;;;;;22.49;67.80;101513.78;5030991;28;20031;-79
2021/09/26 10:12:43;;;;;;;20.75;14.77;;;;;;;22.56;68.02;101520.78;5038367;28;20029;-78
2021/09/26 10:15:28;;;;;;;20.45;15.43;;;;;;;22.95;67.52;101520.75;5030890;28;20033;-78
2021/09/26 10:17:54;;;;;;;20.25;13.70;;;;;;;23.18;67.11;101516.66;5031013;28;20083;-78
2021/09/26 10:20:19;;;;;;;22.20;15.77;;;;;;;23.58;67.63;101521.84;5031404;28;20029;-77
2021/09/26 10:23:05;;;;;;;17.30;13.20;;;;;;;24.53;62.23;101501.22;5031918;28;20137;-82
2021/09/26 10:25:52;;;;;;;19.75;12.48;;;;;;;25.35;57.71;101490.53;5029681;28;20113;-81
2021/09/26 10:28:19;;;;;;;19.88;12.90;;;;;;;25.38;56.86;101487.72;5031471;28;20395;-81
2021/09/26 10:30:47;;;;;;;20.10;12.90;;;;;;;25.38;58.08;101494.88;5029887;28;20396;-81
2021/09/26 10:33:13;;;;;;;19.42;13.25;;;;;;;25.86;57.23;101499.44;5031581;28;20029;-80
2021/09/26 10:35:39;;;;;;;17.63;13.05;;;;;;;26.00;55.94;101503.44;5033248;28;20380;-79
2021/09/26 10:38:25;;;;;;;14.73;12.10;;;;;;;27.13;52.78;101496.31;5032549;28;20029;-82
2021/09/26 10:40:51;;;;;;;13.65;11.30;;;;;;;27.73;51.16;101491.03;5031559;28;20043;-79
2021/09/26 10:43:37;;;;;;;14.52;10.80;;;;;;;27.71;48.87;101487.50;5031480;28;20104;-81
2021/09/26 10:46:37;;;;;;;13.35;10.65;;;;;;;27.56;49.22;101487.22;5031601;28;20026;-79
2021/09/26 10:49:07;;;;;;;12.57;10.60;;;;;;;27.76;48.82;101499.00;5032945;28;20512;-78
2021/09/26 10:51:58;;;;;;;13.45;9.82;;;;;;;27.85;47.71;101501.28;5031503;28;20048;-81
2021/09/26 10:54:37;;;;;;;13.25;11.32;;;;;;;28.35;47.27;101499.91;5027004;28;20043;-80
2021/09/26 10:57:12;;;;;;;15.80;10.88;;;;;;;28.71;45.62;101487.38;5037093;28;20132;-79
2021/09/26 11:00:02;;;;;;;12.23;10.75;;;;;;;29.27;45.91;101485.47;5027669;28;20032;-80
2021/09/26 11:02:31;;;;;;;14.07;10.23;;;;;;;29.76;44.05;101480.16;5029904;28;20026;-77
2021/09/26 11:05:19;;;;;;;13.18;10.18;;;;;;;30.33;41.81;101483.41;5025875;28;20026;-78
2021/09/26 11:07:45;;;;;;;12.65;10.20;;;;;;;30.34;41.36;101482.47;5023245;28;20051;-77
2021/09/26 11:10:35;;;;;;;11.27;9.45;;;;;;;29.97;40.61;101476.38;5028908;28;20487;-78
2021/09/26 11:13:09;;;;;;;14.35;10.50;;;;;;;29.53;41.50;101473.25;5028674;28;20053;-76
2021/09/26 11:15:58;;;;;;;14.43;10.73;;;;;;;29.43;41.69;101469.28;5018167;28;20029;-72
2021/09/26 11:18:44;;;;;;;17.88;10.55;;;;;;;28.33;43.48;101473.84;5025895;28;20392;-81
2021/09/26 11:21:36;;;;;;;12.45;10.93;;;;;;;28.19;45.50;101483.50;5029624;28;20045;-77
2021/09/26 11:24:06;;;;;;;15.93;12.05;;;;;;;28.20;47.26;101490.69;5028447;28;20029;-76
2021/09/26 11:27:04;;;;;;;13.43;11.10;;;;;;;29.17;42.43;101476.91;5032486;28;20053;-77
2021/09/26 11:29:38;;;;;;;14.65;9.55;;;;;;;29.68;40.83;101489.66;5022123;28;20107;-77
2021/09/26 11:32:27;;;;;;;14.73;10.35;;;;;;;29.60;41.55;101482.81;5032169;28;20036;-77
2021/09/26 11:35:41;;;;;;;13.57;10.80;;;;;;;29.93;41.09;101476.53;5027700;28;20025;-79
2021/09/26 11:38:34;;;;;;;12.57;9.00;;;;;;;30.02;41.20;101467.03;5029017;28;20037;-79
2021/09/26 11:41:04;;;;;;;10.98;9.52;;;;;;;29.70;39.29;101460.63;5019213;28;20034;-79
2021/09/26 11:43:37;;;;;;;11.55;9.05;;;;;;;29.70;38.30;101466.91;5026934;28;20024;-79